Terminal Aerodrome Forecast
Issued by NWS Portland, OR

Home | Current Version | Previous Version | Text Only | Print | Product List | Glossary On
Versions: 1 2 3 4 5 6 7 8 9 10 11 12 13 14 15 16 17 18 19 20 21 22 23
000
FTUS46 KPQR 202330
TAFHIO
TAF
KHIO 202330Z 2100/2124 12007KT P6SM SCT060 BKN100
     FM210400 00000KT 5SM BR SCT004 BKN100
     FM210800 00000KT 3SM BR BKN004 OVC100
     FM211700 16006KT 4SM -RA SCT007 BKN020 OVC050
     FM212100 18010KT 3SM RA BR BKN015 OVC025=

USA.gov is the U.S. government's official web portal to all federal, state and local government web resources and services.